sensor_id;sensor_type;location;lat;lon;timestamp;P1;durP1;ratioP1;P2;durP2;ratioP2
57191;SDS011;43052;52.588;13.396;2023-05-31T00:01:39;5.10;;;2.88;;
57191;SDS011;43052;52.588;13.396;2023-05-31T00:04:05;5.55;;;2.35;;
57191;SDS011;43052;52.588;13.396;2023-05-31T00:06:31;3.15;;;1.83;;
57191;SDS011;43052;52.588;13.396;2023-05-31T00:08:56;4.10;;;2.50;;
57191;SDS011;43052;52.588;13.396;2023-05-31T00:11:22;5.18;;;2.35;;
57191;SDS011;43052;52.588;13.396;2023-05-31T00:13:47;5.43;;;2.30;;
57191;SDS011;43052;52.588;13.396;2023-05-31T00:16:20;4.53;;;2.40;;
57191;SDS011;43052;52.588;13.396;2023-05-31T00:18:45;6.93;;;2.67;;
57191;SDS011;43052;52.588;13.396;2023-05-31T00:21:11;4.82;;;2.20;;
57191;SDS011;43052;52.588;13.396;2023-05-31T00:23:37;5.18;;;2.22;;
57191;SDS011;43052;52.588;13.396;2023-05-31T00:26:02;9.68;;;2.30;;
57191;SDS011;43052;52.588;13.396;2023-05-31T00:28:27;4.07;;;2.30;;
57191;SDS011;43052;52.588;13.396;2023-05-31T00:30:52;4.85;;;2.35;;
57191;SDS011;43052;52.588;13.396;2023-05-31T00:33:18;4.85;;;2.25;;
57191;SDS011;43052;52.588;13.396;2023-05-31T00:35:43;5.88;;;2.47;;
57191;SDS011;43052;52.588;13.396;2023-05-31T00:38:08;4.70;;;2.22;;
57191;SDS011;43052;52.588;13.396;2023-05-31T00:40:34;4.82;;;2.60;;
57191;SDS011;43052;52.588;13.396;2023-05-31T00:43:00;3.97;;;2.55;;
57191;SDS011;43052;52.588;13.396;2023-05-31T00:45:26;3.75;;;2.53;;
57191;SDS011;43052;52.588;13.396;2023-05-31T00:47:51;6.65;;;2.40;;
57191;SDS011;43052;52.588;13.396;2023-05-31T00:50:17;4.43;;;2.45;;
57191;SDS011;43052;52.588;13.396;2023-05-31T00:52:46;4.93;;;2.50;;
57191;SDS011;43052;52.588;13.396;2023-05-31T00:55:14;4.93;;;2.47;;
57191;SDS011;43052;52.588;13.396;2023-05-31T00:57:41;6.22;;;2.75;;
57191;SDS011;43052;52.588;13.396;2023-05-31T01:00:06;3.97;;;2.50;;
57191;SDS011;43052;52.588;13.396;2023-05-31T01:02:33;5.05;;;2.92;;
57191;SDS011;43052;52.588;13.396;2023-05-31T01:04:59;5.97;;;2.72;;
57191;SDS011;43052;52.588;13.396;2023-05-31T01:07:25;6.45;;;2.80;;
57191;SDS011;43052;52.588;13.396;2023-05-31T01:09:51;5.18;;;2.67;;
57191;SDS011;43052;52.588;13.396;2023-05-31T01:12:32;4.13;;;2.75;;
57191;SDS011;43052;52.588;13.396;2023-05-31T01:15:13;4.90;;;2.55;;
57191;SDS011;43052;52.588;13.396;2023-05-31T01:18:06;4.80;;;2.70;;
57191;SDS011;43052;52.588;13.396;2023-05-31T01:20:44;6.60;;;3.00;;
57191;SDS011;43052;52.588;13.396;2023-05-31T01:28:25;6.30;;;2.90;;
57191;SDS011;43052;52.588;13.396;2023-05-31T01:30:51;6.07;;;2.90;;
57191;SDS011;43052;52.588;13.396;2023-05-31T01:33:18;6.50;;;3.05;;
57191;SDS011;43052;52.588;13.396;2023-05-31T01:35:44;4.38;;;2.55;;
57191;SDS011;43052;52.588;13.396;2023-05-31T01:38:09;3.92;;;2.67;;
57191;SDS011;43052;52.588;13.396;2023-05-31T01:40:34;4.88;;;3.08;;
57191;SDS011;43052;52.588;13.396;2023-05-31T01:43:00;6.07;;;3.00;;
57191;SDS011;43052;52.588;13.396;2023-05-31T01:45:27;4.88;;;2.75;;
57191;SDS011;43052;52.588;13.396;2023-05-31T01:47:57;5.00;;;2.92;;
57191;SDS011;43052;52.588;13.396;2023-05-31T01:50:27;7.75;;;3.00;;
57191;SDS011;43052;52.588;13.396;2023-05-31T01:52:53;5.90;;;2.95;;
57191;SDS011;43052;52.588;13.396;2023-05-31T01:55:18;5.40;;;2.70;;
57191;SDS011;43052;52.588;13.396;2023-05-31T01:57:44;6.97;;;2.90;;
57191;SDS011;43052;52.588;13.396;2023-05-31T02:00:11;5.50;;;2.75;;
57191;SDS011;43052;52.588;13.396;2023-05-31T02:02:43;5.07;;;2.80;;
57191;SDS011;43052;52.588;13.396;2023-05-31T02:05:09;5.38;;;3.00;;
57191;SDS011;43052;52.588;13.396;2023-05-31T02:07:41;5.10;;;2.85;;
57191;SDS011;43052;52.588;13.396;2023-05-31T02:10:08;5.43;;;2.97;;
57191;SDS011;43052;52.588;13.396;2023-05-31T02:12:35;6.53;;;3.00;;
57191;SDS011;43052;52.588;13.396;2023-05-31T02:15:00;7.95;;;3.22;;
57191;SDS011;43052;52.588;13.396;2023-05-31T02:17:26;6.30;;;3.13;;
57191;SDS011;43052;52.588;13.396;2023-05-31T02:19:51;6.05;;;3.20;;
57191;SDS011;43052;52.588;13.396;2023-05-31T02:22:17;4.53;;;2.90;;
57191;SDS011;43052;52.588;13.396;2023-05-31T02:24:43;6.00;;;2.63;;
57191;SDS011;43052;52.588;13.396;2023-05-31T02:27:09;4.50;;;2.65;;
57191;SDS011;43052;52.588;13.396;2023-05-31T02:29:34;4.93;;;2.97;;
57191;SDS011;43052;52.588;13.396;2023-05-31T02:32:00;6.30;;;3.28;;
57191;SDS011;43052;52.588;13.396;2023-05-31T02:34:26;9.13;;;3.13;;
57191;SDS011;43052;52.588;13.396;2023-05-31T02:36:51;7.20;;;3.08;;
57191;SDS011;43052;52.588;13.396;2023-05-31T02:39:17;5.75;;;3.10;;
57191;SDS011;43052;52.588;13.396;2023-05-31T02:41:43;6.35;;;3.08;;
57191;SDS011;43052;52.588;13.396;2023-05-31T02:44:08;7.03;;;3.22;;
57191;SDS011;43052;52.588;13.396;2023-05-31T02:46:33;6.32;;;3.20;;
57191;SDS011;43052;52.588;13.396;2023-05-31T02:48:59;6.40;;;3.20;;
57191;SDS011;43052;52.588;13.396;2023-05-31T02:51:24;6.97;;;2.95;;
57191;SDS011;43052;52.588;13.396;2023-05-31T02:53:50;6.50;;;3.10;;
57191;SDS011;43052;52.588;13.396;2023-05-31T02:56:15;5.50;;;3.08;;
57191;SDS011;43052;52.588;13.396;2023-05-31T02:58:40;5.60;;;2.78;;
57191;SDS011;43052;52.588;13.396;2023-05-31T03:01:05;6.85;;;3.10;;
57191;SDS011;43052;52.588;13.396;2023-05-31T03:03:31;7.43;;;3.10;;
57191;SDS011;43052;52.588;13.396;2023-05-31T03:05:56;8.80;;;3.25;;
57191;SDS011;43052;52.588;13.396;2023-05-31T03:08:21;6.45;;;3.35;;
57191;SDS011;43052;52.588;13.396;2023-05-31T03:10:46;9.07;;;3.70;;
57191;SDS011;43052;52.588;13.396;2023-05-31T03:13:12;6.07;;;3.60;;
57191;SDS011;43052;52.588;13.396;2023-05-31T03:15:37;6.75;;;3.10;;
57191;SDS011;43052;52.588;13.396;2023-05-31T03:18:03;7.10;;;3.40;;
57191;SDS011;43052;52.588;13.396;2023-05-31T03:20:28;4.68;;;2.85;;
57191;SDS011;43052;52.588;13.396;2023-05-31T03:22:55;6.40;;;2.90;;
57191;SDS011;43052;52.588;13.396;2023-05-31T03:25:20;6.20;;;3.20;;
57191;SDS011;43052;52.588;13.396;2023-05-31T03:27:46;6.43;;;3.70;;
57191;SDS011;43052;52.588;13.396;2023-05-31T03:30:11;7.00;;;3.40;;
57191;SDS011;43052;52.588;13.396;2023-05-31T03:32:37;7.22;;;3.17;;
57191;SDS011;43052;52.588;13.396;2023-05-31T03:35:02;5.40;;;3.33;;
57191;SDS011;43052;52.588;13.396;2023-05-31T03:37:27;7.85;;;3.65;;
57191;SDS011;43052;52.588;13.396;2023-05-31T03:39:52;6.60;;;3.10;;
57191;SDS011;43052;52.588;13.396;2023-05-31T03:42:18;6.65;;;3.45;;
57191;SDS011;43052;52.588;13.396;2023-05-31T03:44:43;8.68;;;3.47;;
57191;SDS011;43052;52.588;13.396;2023-05-31T03:47:08;7.97;;;3.17;;
57191;SDS011;43052;52.588;13.396;2023-05-31T03:49:33;6.82;;;3.65;;
57191;SDS011;43052;52.588;13.396;2023-05-31T03:51:59;7.38;;;3.50;;
57191;SDS011;43052;52.588;13.396;2023-05-31T03:54:24;8.27;;;3.60;;
57191;SDS011;43052;52.588;13.396;2023-05-31T03:56:50;9.25;;;3.60;;
57191;SDS011;43052;52.588;13.396;2023-05-31T03:59:15;7.30;;;3.33;;
57191;SDS011;43052;52.588;13.396;2023-05-31T04:01:41;6.65;;;3.30;;
57191;SDS011;43052;52.588;13.396;2023-05-31T04:04:06;6.57;;;3.38;;
57191;SDS011;43052;52.588;13.396;2023-05-31T04:06:31;8.82;;;3.60;;
57191;SDS011;43052;52.588;13.396;2023-05-31T04:08:57;6.75;;;3.38;;
57191;SDS011;43052;52.588;13.396;2023-05-31T04:11:22;7.10;;;3.35;;
57191;SDS011;43052;52.588;13.396;2023-05-31T04:13:48;6.78;;;3.30;;
57191;SDS011;43052;52.588;13.396;2023-05-31T04:16:13;7.53;;;3.40;;
57191;SDS011;43052;52.588;13.396;2023-05-31T04:18:38;8.43;;;3.47;;
57191;SDS011;43052;52.588;13.396;2023-05-31T04:21:03;8.93;;;3.53;;
57191;SDS011;43052;52.588;13.396;2023-05-31T04:23:29;5.70;;;3.13;;
57191;SDS011;43052;52.588;13.396;2023-05-31T04:25:55;5.95;;;2.67;;
57191;SDS011;43052;52.588;13.396;2023-05-31T04:28:20;7.93;;;2.97;;
57191;SDS011;43052;52.588;13.396;2023-05-31T04:30:45;8.32;;;2.75;;
57191;SDS011;43052;52.588;13.396;2023-05-31T04:33:11;5.97;;;2.90;;
57191;SDS011;43052;52.588;13.396;2023-05-31T04:35:36;5.28;;;2.65;;
57191;SDS011;43052;52.588;13.396;2023-05-31T04:38:01;9.85;;;3.28;;
57191;SDS011;43052;52.588;13.396;2023-05-31T04:40:27;5.00;;;3.03;;
57191;SDS011;43052;52.588;13.396;2023-05-31T04:42:56;7.00;;;2.95;;
57191;SDS011;43052;52.588;13.396;2023-05-31T04:45:22;6.90;;;3.25;;
57191;SDS011;43052;52.588;13.396;2023-05-31T04:47:48;5.80;;;2.92;;
57191;SDS011;43052;52.588;13.396;2023-05-31T04:50:15;5.88;;;2.90;;
57191;SDS011;43052;52.588;13.396;2023-05-31T04:52:40;8.02;;;2.97;;
57191;SDS011;43052;52.588;13.396;2023-05-31T04:55:06;6.50;;;2.90;;
57191;SDS011;43052;52.588;13.396;2023-05-31T04:57:32;7.90;;;3.03;;
57191;SDS011;43052;52.588;13.396;2023-05-31T04:59:57;5.28;;;2.70;;
57191;SDS011;43052;52.588;13.396;2023-05-31T05:02:23;5.15;;;2.80;;
57191;SDS011;43052;52.588;13.396;2023-05-31T05:04:48;5.45;;;2.80;;
57191;SDS011;43052;52.588;13.396;2023-05-31T05:07:14;5.65;;;2.67;;
57191;SDS011;43052;52.588;13.396;2023-05-31T05:09:40;5.45;;;2.50;;
57191;SDS011;43052;52.588;13.396;2023-05-31T05:12:05;6.97;;;2.65;;
57191;SDS011;43052;52.588;13.396;2023-05-31T05:14:32;3.50;;;2.45;;
57191;SDS011;43052;52.588;13.396;2023-05-31T05:16:57;5.28;;;2.60;;
57191;SDS011;43052;52.588;13.396;2023-05-31T05:19:23;6.60;;;2.80;;
57191;SDS011;43052;52.588;13.396;2023-05-31T05:21:48;4.38;;;2.30;;
57191;SDS011;43052;52.588;13.396;2023-05-31T05:24:13;6.27;;;2.60;;
57191;SDS011;43052;52.588;13.396;2023-05-31T05:26:40;5.78;;;2.80;;
57191;SDS011;43052;52.588;13.396;2023-05-31T05:29:05;12.10;;;2.75;;
57191;SDS011;43052;52.588;13.396;2023-05-31T05:31:30;6.63;;;3.03;;
57191;SDS011;43052;52.588;13.396;2023-05-31T05:33:56;7.20;;;2.88;;
57191;SDS011;43052;52.588;13.396;2023-05-31T05:36:21;4.35;;;2.70;;
57191;SDS011;43052;52.588;13.396;2023-05-31T05:38:47;6.13;;;2.57;;
57191;SDS011;43052;52.588;13.396;2023-05-31T05:41:12;4.75;;;2.58;;
57191;SDS011;43052;52.588;13.396;2023-05-31T05:43:41;7.60;;;2.50;;
57191;SDS011;43052;52.588;13.396;2023-05-31T05:46:06;5.30;;;2.60;;
57191;SDS011;43052;52.588;13.396;2023-05-31T05:48:32;4.03;;;2.70;;
57191;SDS011;43052;52.588;13.396;2023-05-31T05:50:57;6.97;;;2.70;;
57191;SDS011;43052;52.588;13.396;2023-05-31T05:53:23;4.72;;;2.42;;
57191;SDS011;43052;52.588;13.396;2023-05-31T05:55:48;5.93;;;2.33;;
57191;SDS011;43052;52.588;13.396;2023-05-31T05:58:15;5.88;;;2.30;;
57191;SDS011;43052;52.588;13.396;2023-05-31T06:00:41;5.53;;;2.72;;
57191;SDS011;43052;52.588;13.396;2023-05-31T06:03:07;6.43;;;2.63;;
57191;SDS011;43052;52.588;13.396;2023-05-31T06:05:33;7.00;;;2.80;;
57191;SDS011;43052;52.588;13.396;2023-05-31T06:07:58;4.53;;;2.17;;
57191;SDS011;43052;52.588;13.396;2023-05-31T06:10:23;6.23;;;2.90;;
57191;SDS011;43052;52.588;13.396;2023-05-31T06:12:48;5.67;;;2.73;;
57191;SDS011;43052;52.588;13.396;2023-05-31T06:15:14;10.75;;;3.30;;
57191;SDS011;43052;52.588;13.396;2023-05-31T06:17:40;5.30;;;2.50;;
57191;SDS011;43052;52.588;13.396;2023-05-31T06:20:06;5.47;;;2.53;;
57191;SDS011;43052;52.588;13.396;2023-05-31T06:22:32;4.72;;;2.30;;
57191;SDS011;43052;52.588;13.396;2023-05-31T06:24:57;4.67;;;2.50;;
57191;SDS011;43052;52.588;13.396;2023-05-31T06:27:23;4.78;;;2.13;;
57191;SDS011;43052;52.588;13.396;2023-05-31T06:29:48;7.30;;;2.50;;
57191;SDS011;43052;52.588;13.396;2023-05-31T06:32:19;7.70;;;2.63;;
57191;SDS011;43052;52.588;13.396;2023-05-31T06:34:45;3.85;;;2.40;;
57191;SDS011;43052;52.588;13.396;2023-05-31T06:37:11;6.68;;;2.85;;
57191;SDS011;43052;52.588;13.396;2023-05-31T06:39:36;5.53;;;2.50;;
57191;SDS011;43052;52.588;13.396;2023-05-31T06:42:01;7.03;;;2.40;;
57191;SDS011;43052;52.588;13.396;2023-05-31T06:44:26;4.30;;;2.33;;
57191;SDS011;43052;52.588;13.396;2023-05-31T06:46:52;4.50;;;2.20;;
57191;SDS011;43052;52.588;13.396;2023-05-31T06:49:17;6.03;;;2.42;;
57191;SDS011;43052;52.588;13.396;2023-05-31T06:51:43;4.33;;;2.30;;
57191;SDS011;43052;52.588;13.396;2023-05-31T06:54:08;5.80;;;2.20;;
57191;SDS011;43052;52.588;13.396;2023-05-31T06:56:33;4.05;;;2.35;;
57191;SDS011;43052;52.588;13.396;2023-05-31T06:58:58;6.47;;;2.60;;
57191;SDS011;43052;52.588;13.396;2023-05-31T07:01:24;7.47;;;2.92;;
57191;SDS011;43052;52.588;13.396;2023-05-31T07:03:49;4.38;;;2.22;;
57191;SDS011;43052;52.588;13.396;2023-05-31T07:06:21;5.30;;;2.20;;
57191;SDS011;43052;52.588;13.396;2023-05-31T07:08:46;9.55;;;2.90;;
57191;SDS011;43052;52.588;13.396;2023-05-31T07:11:12;5.68;;;2.38;;
57191;SDS011;43052;52.588;13.396;2023-05-31T07:13:37;8.60;;;2.50;;
57191;SDS011;43052;52.588;13.396;2023-05-31T07:16:03;7.13;;;2.30;;
57191;SDS011;43052;52.588;13.396;2023-05-31T07:18:28;5.63;;;2.80;;
57191;SDS011;43052;52.588;13.396;2023-05-31T07:20:57;4.55;;;2.47;;
57191;SDS011;43052;52.588;13.396;2023-05-31T07:23:23;6.88;;;2.40;;
57191;SDS011;43052;52.588;13.396;2023-05-31T07:25:49;5.25;;;2.42;;
57191;SDS011;43052;52.588;13.396;2023-05-31T07:28:14;6.22;;;2.83;;
57191;SDS011;43052;52.588;13.396;2023-05-31T07:30:40;7.63;;;2.53;;
57191;SDS011;43052;52.588;13.396;2023-05-31T07:33:05;5.38;;;2.10;;
57191;SDS011;43052;52.588;13.396;2023-05-31T07:35:30;3.67;;;2.10;;
57191;SDS011;43052;52.588;13.396;2023-05-31T07:37:56;4.10;;;2.50;;
57191;SDS011;43052;52.588;13.396;2023-05-31T07:40:21;5.00;;;2.47;;
57191;SDS011;43052;52.588;13.396;2023-05-31T07:42:46;6.07;;;2.33;;
57191;SDS011;43052;52.588;13.396;2023-05-31T07:45:11;5.80;;;2.30;;
57191;SDS011;43052;52.588;13.396;2023-05-31T07:47:36;4.83;;;2.63;;
57191;SDS011;43052;52.588;13.396;2023-05-31T07:50:02;6.37;;;2.57;;
57191;SDS011;43052;52.588;13.396;2023-05-31T07:52:28;4.72;;;2.42;;
57191;SDS011;43052;52.588;13.396;2023-05-31T07:54:53;5.33;;;2.33;;
57191;SDS011;43052;52.588;13.396;2023-05-31T07:57:19;6.83;;;2.90;;
57191;SDS011;43052;52.588;13.396;2023-05-31T07:59:44;5.13;;;2.33;;
57191;SDS011;43052;52.588;13.396;2023-05-31T08:02:09;6.95;;;2.72;;
57191;SDS011;43052;52.588;13.396;2023-05-31T08:04:35;4.18;;;2.70;;
57191;SDS011;43052;52.588;13.396;2023-05-31T08:07:00;5.55;;;2.13;;
57191;SDS011;43052;52.588;13.396;2023-05-31T08:09:26;5.05;;;2.45;;
57191;SDS011;43052;52.588;13.396;2023-05-31T08:11:51;3.97;;;2.10;;
57191;SDS011;43052;52.588;13.396;2023-05-31T08:14:17;4.63;;;2.10;;
57191;SDS011;43052;52.588;13.396;2023-05-31T08:16:44;3.08;;;1.90;;
57191;SDS011;43052;52.588;13.396;2023-05-31T08:19:14;4.35;;;1.80;;
57191;SDS011;43052;52.588;13.396;2023-05-31T08:22:03;4.65;;;1.95;;
57191;SDS011;43052;52.588;13.396;2023-05-31T08:24:29;2.90;;;1.85;;
57191;SDS011;43052;52.588;13.396;2023-05-31T08:26:55;3.97;;;2.03;;
57191;SDS011;43052;52.588;13.396;2023-05-31T08:29:22;3.72;;;1.80;;
57191;SDS011;43052;52.588;13.396;2023-05-31T08:31:47;4.65;;;2.30;;
57191;SDS011;43052;52.588;13.396;2023-05-31T08:34:12;3.45;;;2.00;;
57191;SDS011;43052;52.588;13.396;2023-05-31T08:36:38;4.50;;;2.08;;
57191;SDS011;43052;52.588;13.396;2023-05-31T08:39:05;4.07;;;2.20;;
57191;SDS011;43052;52.588;13.396;2023-05-31T08:41:32;5.28;;;2.28;;
57191;SDS011;43052;52.588;13.396;2023-05-31T08:58:24;4.97;;;1.80;;
57191;SDS011;43052;52.588;13.396;2023-05-31T09:00:50;3.38;;;1.60;;
57191;SDS011;43052;52.588;13.396;2023-05-31T09:03:16;4.15;;;1.90;;
57191;SDS011;43052;52.588;13.396;2023-05-31T09:05:41;4.97;;;1.90;;
57191;SDS011;43052;52.588;13.396;2023-05-31T09:08:12;2.60;;;1.80;;
57191;SDS011;43052;52.588;13.396;2023-05-31T09:13:32;2.35;;;2.05;;
57191;SDS011;43052;52.588;13.396;2023-05-31T09:15:58;2.75;;;1.77;;
57191;SDS011;43052;52.588;13.396;2023-05-31T09:18:25;4.10;;;2.00;;
57191;SDS011;43052;52.588;13.396;2023-05-31T09:20:55;2.53;;;1.73;;
57191;SDS011;43052;52.588;13.396;2023-05-31T09:23:21;6.47;;;1.83;;
57191;SDS011;43052;52.588;13.396;2023-05-31T09:25:48;3.05;;;1.80;;
57191;SDS011;43052;52.588;13.396;2023-05-31T09:28:14;4.25;;;1.77;;
57191;SDS011;43052;52.588;13.396;2023-05-31T09:30:42;4.85;;;2.00;;
57191;SDS011;43052;52.588;13.396;2023-05-31T09:33:07;4.77;;;1.93;;
57191;SDS011;43052;52.588;13.396;2023-05-31T09:35:32;3.65;;;1.80;;
57191;SDS011;43052;52.588;13.396;2023-05-31T09:38:00;2.90;;;2.00;;
57191;SDS011;43052;52.588;13.396;2023-05-31T09:40:29;2.47;;;1.98;;
57191;SDS011;43052;52.588;13.396;2023-05-31T09:42:56;2.45;;;1.90;;
57191;SDS011;43052;52.588;13.396;2023-05-31T09:45:22;3.75;;;1.90;;
57191;SDS011;43052;52.588;13.396;2023-05-31T09:47:48;5.60;;;2.13;;
57191;SDS011;43052;52.588;13.396;2023-05-31T09:52:46;3.80;;;1.90;;
57191;SDS011;43052;52.588;13.396;2023-05-31T09:55:13;4.95;;;1.90;;
57191;SDS011;43052;52.588;13.396;2023-05-31T10:00:55;2.35;;;1.80;;
57191;SDS011;43052;52.588;13.396;2023-05-31T10:03:23;2.83;;;1.73;;
57191;SDS011;43052;52.588;13.396;2023-05-31T10:05:50;2.83;;;1.52;;
57191;SDS011;43052;52.588;13.396;2023-05-31T10:23:19;2.17;;;1.70;;
57191;SDS011;43052;52.588;13.396;2023-05-31T10:26:10;3.85;;;1.80;;
57191;SDS011;43052;52.588;13.396;2023-05-31T10:29:05;3.22;;;1.90;;
57191;SDS011;43052;52.588;13.396;2023-05-31T10:32:25;2.72;;;1.73;;
57191;SDS011;43052;52.588;13.396;2023-05-31T10:34:52;3.88;;;1.95;;
57191;SDS011;43052;52.588;13.396;2023-05-31T10:37:39;2.33;;;1.60;;
57191;SDS011;43052;52.588;13.396;2023-05-31T10:40:15;2.90;;;1.65;;
57191;SDS011;43052;52.588;13.396;2023-05-31T10:43:26;3.47;;;1.40;;
57191;SDS011;43052;52.588;13.396;2023-05-31T10:46:10;3.05;;;1.30;;
57191;SDS011;43052;52.588;13.396;2023-05-31T10:48:57;4.85;;;1.40;;
57191;SDS011;43052;52.588;13.396;2023-05-31T10:54:45;3.08;;;1.30;;
57191;SDS011;43052;52.588;13.396;2023-05-31T10:57:17;3.13;;;1.50;;
57191;SDS011;43052;52.588;13.396;2023-05-31T10:59:58;1.58;;;1.30;;
57191;SDS011;43052;52.588;13.396;2023-05-31T11:02:34;1.77;;;1.23;;
57191;SDS011;43052;52.588;13.396;2023-05-31T11:08:33;2.72;;;1.33;;
57191;SDS011;43052;52.588;13.396;2023-05-31T11:11:45;2.72;;;1.20;;
57191;SDS011;43052;52.588;13.396;2023-05-31T11:14:01;2.47;;;1.38;;
57191;SDS011;43052;52.588;13.396;2023-05-31T11:16:30;1.73;;;1.00;;
57191;SDS011;43052;52.588;13.396;2023-05-31T11:19:03;2.38;;;1.02;;
57191;SDS011;43052;52.588;13.396;2023-05-31T11:26:53;1.45;;;1.00;;
57191;SDS011;43052;52.588;13.396;2023-05-31T11:29:22;2.20;;;1.00;;
57191;SDS011;43052;52.588;13.396;2023-05-31T11:34:20;4.35;;;0.95;;
57191;SDS011;43052;52.588;13.396;2023-05-31T11:36:49;2.15;;;0.98;;
57191;SDS011;43052;52.588;13.396;2023-05-31T11:39:16;3.22;;;1.13;;
57191;SDS011;43052;52.588;13.396;2023-05-31T11:41:41;2.65;;;1.10;;
57191;SDS011;43052;52.588;13.396;2023-05-31T11:44:10;1.90;;;0.93;;
57191;SDS011;43052;52.588;13.396;2023-05-31T11:46:37;1.17;;;1.00;;
57191;SDS011;43052;52.588;13.396;2023-05-31T11:49:08;3.50;;;1.27;;
57191;SDS011;43052;52.588;13.396;2023-05-31T11:51:34;3.35;;;1.15;;
57191;SDS011;43052;52.588;13.396;2023-05-31T11:54:18;1.27;;;0.70;;
57191;SDS011;43052;52.588;13.396;2023-05-31T11:56:51;1.20;;;0.98;;
57191;SDS011;43052;52.588;13.396;2023-05-31T11:59:17;2.53;;;1.20;;
57191;SDS011;43052;52.588;13.396;2023-05-31T12:01:42;2.42;;;1.00;;
57191;SDS011;43052;52.588;13.396;2023-05-31T12:04:07;3.40;;;1.23;;
57191;SDS011;43052;52.588;13.396;2023-05-31T12:06:33;5.75;;;1.10;;
57191;SDS011;43052;52.588;13.396;2023-05-31T12:08:59;2.05;;;1.00;;
57191;SDS011;43052;52.588;13.396;2023-05-31T12:11:25;2.40;;;1.10;;
57191;SDS011;43052;52.588;13.396;2023-05-31T12:13:55;1.25;;;1.02;;
57191;SDS011;43052;52.588;13.396;2023-05-31T12:16:20;2.17;;;0.90;;
57191;SDS011;43052;52.588;13.396;2023-05-31T12:18:48;2.05;;;0.85;;
57191;SDS011;43052;52.588;13.396;2023-05-31T12:21:15;3.10;;;1.00;;
57191;SDS011;43052;52.588;13.396;2023-05-31T12:23:56;0.95;;;0.85;;
57191;SDS011;43052;52.588;13.396;2023-05-31T12:26:23;2.08;;;0.88;;
57191;SDS011;43052;52.588;13.396;2023-05-31T12:28:49;2.65;;;1.00;;
57191;SDS011;43052;52.588;13.396;2023-05-31T12:31:19;2.58;;;1.10;;
57191;SDS011;43052;52.588;13.396;2023-05-31T12:33:56;2.70;;;1.20;;
57191;SDS011;43052;52.588;13.396;2023-05-31T12:36:38;1.33;;;0.90;;
57191;SDS011;43052;52.588;13.396;2023-05-31T12:39:20;1.40;;;0.73;;
57191;SDS011;43052;52.588;13.396;2023-05-31T12:41:54;2.15;;;0.93;;
57191;SDS011;43052;52.588;13.396;2023-05-31T12:44:36;1.20;;;0.80;;
57191;SDS011;43052;52.588;13.396;2023-05-31T12:49:34;1.88;;;1.10;;
57191;SDS011;43052;52.588;13.396;2023-05-31T12:52:03;4.25;;;1.33;;
57191;SDS011;43052;52.588;13.396;2023-05-31T12:54:31;2.60;;;1.95;;
57191;SDS011;43052;52.588;13.396;2023-05-31T12:56:59;1.75;;;1.00;;
57191;SDS011;43052;52.588;13.396;2023-05-31T12:59:29;1.90;;;1.00;;
57191;SDS011;43052;52.588;13.396;2023-05-31T13:01:55;2.90;;;0.98;;
57191;SDS011;43052;52.588;13.396;2023-05-31T13:04:22;1.63;;;0.90;;
57191;SDS011;43052;52.588;13.396;2023-05-31T13:06:47;4.30;;;1.20;;
57191;SDS011;43052;52.588;13.396;2023-05-31T13:09:13;1.90;;;1.20;;
57191;SDS011;43052;52.588;13.396;2023-05-31T13:11:40;2.08;;;1.17;;
57191;SDS011;43052;52.588;13.396;2023-05-31T13:14:05;3.13;;;1.35;;
57191;SDS011;43052;52.588;13.396;2023-05-31T13:16:33;2.05;;;1.27;;
57191;SDS011;43052;52.588;13.396;2023-05-31T13:19:00;2.60;;;1.30;;
57191;SDS011;43052;52.588;13.396;2023-05-31T13:21:27;4.15;;;1.80;;
57191;SDS011;43052;52.588;13.396;2023-05-31T13:23:53;4.28;;;1.70;;
57191;SDS011;43052;52.588;13.396;2023-05-31T13:26:19;2.75;;;1.30;;
57191;SDS011;43052;52.588;13.396;2023-05-31T13:28:45;2.95;;;1.42;;
57191;SDS011;43052;52.588;13.396;2023-05-31T13:31:10;1.60;;;1.33;;
57191;SDS011;43052;52.588;13.396;2023-05-31T13:33:35;2.92;;;1.30;;
57191;SDS011;43052;52.588;13.396;2023-05-31T13:36:01;2.28;;;1.20;;
57191;SDS011;43052;52.588;13.396;2023-05-31T13:38:26;2.88;;;1.60;;
57191;SDS011;43052;52.588;13.396;2023-05-31T13:40:52;2.20;;;1.50;;
57191;SDS011;43052;52.588;13.396;2023-05-31T13:43:20;2.08;;;1.33;;
57191;SDS011;43052;52.588;13.396;2023-05-31T13:45:48;2.63;;;1.27;;
57191;SDS011;43052;52.588;13.396;2023-05-31T13:48:13;1.88;;;1.10;;
57191;SDS011;43052;52.588;13.396;2023-05-31T13:50:39;4.15;;;1.30;;
57191;SDS011;43052;52.588;13.396;2023-05-31T13:53:05;2.85;;;1.20;;
57191;SDS011;43052;52.588;13.396;2023-05-31T13:55:30;1.58;;;1.00;;
57191;SDS011;43052;52.588;13.396;2023-05-31T13:58:00;2.92;;;1.20;;
57191;SDS011;43052;52.588;13.396;2023-05-31T14:00:25;3.45;;;1.30;;
57191;SDS011;43052;52.588;13.396;2023-05-31T14:02:53;2.22;;;1.60;;
57191;SDS011;43052;52.588;13.396;2023-05-31T14:05:19;3.15;;;1.30;;
57191;SDS011;43052;52.588;13.396;2023-05-31T14:07:44;1.88;;;1.30;;
57191;SDS011;43052;52.588;13.396;2023-05-31T14:10:09;3.45;;;1.20;;
57191;SDS011;43052;52.588;13.396;2023-05-31T14:12:35;2.75;;;1.30;;
57191;SDS011;43052;52.588;13.396;2023-05-31T14:15:01;2.33;;;1.35;;
57191;SDS011;43052;52.588;13.396;2023-05-31T14:17:26;4.05;;;1.50;;
57191;SDS011;43052;52.588;13.396;2023-05-31T14:19:51;2.95;;;1.30;;
57191;SDS011;43052;52.588;13.396;2023-05-31T14:22:16;2.25;;;1.40;;
57191;SDS011;43052;52.588;13.396;2023-05-31T14:24:42;2.35;;;1.30;;
57191;SDS011;43052;52.588;13.396;2023-05-31T14:27:07;3.33;;;1.30;;
57191;SDS011;43052;52.588;13.396;2023-05-31T14:29:35;3.05;;;1.40;;
57191;SDS011;43052;52.588;13.396;2023-05-31T14:32:01;2.92;;;1.70;;
57191;SDS011;43052;52.588;13.396;2023-05-31T14:34:26;2.45;;;1.30;;
57191;SDS011;43052;52.588;13.396;2023-05-31T14:36:51;2.60;;;1.33;;
57191;SDS011;43052;52.588;13.396;2023-05-31T14:39:17;4.07;;;1.60;;
57191;SDS011;43052;52.588;13.396;2023-05-31T14:41:42;2.30;;;1.45;;
57191;SDS011;43052;52.588;13.396;2023-05-31T14:44:08;1.52;;;1.30;;
57191;SDS011;43052;52.588;13.396;2023-05-31T14:46:34;3.92;;;1.48;;
57191;SDS011;43052;52.588;13.396;2023-05-31T14:48:59;1.65;;;1.40;;
57191;SDS011;43052;52.588;13.396;2023-05-31T14:51:24;1.88;;;1.23;;
57191;SDS011;43052;52.588;13.396;2023-05-31T14:53:50;1.85;;;1.20;;
57191;SDS011;43052;52.588;13.396;2023-05-31T14:56:15;2.30;;;1.40;;
57191;SDS011;43052;52.588;13.396;2023-05-31T14:58:40;3.85;;;1.20;;
57191;SDS011;43052;52.588;13.396;2023-05-31T15:01:07;2.17;;;1.60;;
57191;SDS011;43052;52.588;13.396;2023-05-31T15:03:32;2.40;;;1.40;;
57191;SDS011;43052;52.588;13.396;2023-05-31T15:05:58;3.47;;;1.40;;
57191;SDS011;43052;52.588;13.396;2023-05-31T15:08:23;2.17;;;1.33;;
57191;SDS011;43052;52.588;13.396;2023-05-31T15:10:49;2.47;;;1.45;;
57191;SDS011;43052;52.588;13.396;2023-05-31T15:13:15;2.78;;;1.33;;
57191;SDS011;43052;52.588;13.396;2023-05-31T15:15:40;4.10;;;1.45;;
57191;SDS011;43052;52.588;13.396;2023-05-31T15:18:06;1.90;;;1.33;;
57191;SDS011;43052;52.588;13.396;2023-05-31T15:20:32;2.10;;;1.50;;
57191;SDS011;43052;52.588;13.396;2023-05-31T15:22:57;2.35;;;1.35;;
57191;SDS011;43052;52.588;13.396;2023-05-31T15:25:22;3.08;;;1.55;;
57191;SDS011;43052;52.588;13.396;2023-05-31T15:27:48;2.40;;;1.30;;
57191;SDS011;43052;52.588;13.396;2023-05-31T15:30:13;5.10;;;1.40;;
57191;SDS011;43052;52.588;13.396;2023-05-31T15:32:38;2.95;;;1.38;;
57191;SDS011;43052;52.588;13.396;2023-05-31T15:35:04;2.85;;;1.50;;